Time;durP1;ratioP1;P1;durP2;ratioP2;P2;SDS_P1;SDS_P2;PMS_P1;PMS_P2;Temp;Humidity;BMP_temperature;BMP_pressure;BME280_temperature;BME280_humidity;BME280_pressure;Samples;Min_cycle;Max_cycle;Signal;HPM_P1;HPM_P2
2021/06/24 00:00:58;;;;;;;61.55;14.52;;;;;;;25.33;54.88;99681.41;4959878;28;20039;-66
2021/06/24 00:03:25;;;;;;;61.83;14.70;;;;;;;25.26;54.76;99683.28;4979148;28;20105;-65
2021/06/24 00:05:52;;;;;;;50.33;14.40;;;;;;;25.27;54.75;99688.47;4978771;28;20593;-66
2021/06/24 00:08:18;;;;;;;55.20;15.02;;;;;;;25.28;55.03;99692.09;4976163;28;20057;-66
2021/06/24 00:10:45;;;;;;;50.67;15.30;;;;;;;25.25;55.30;99690.06;4978769;28;20096;-66
2021/06/24 00:13:14;;;;;;;59.45;14.90;;;;;;;25.24;55.31;99692.03;4977731;28;20137;-66
2021/06/24 00:15:40;;;;;;;43.55;13.18;;;;;;;25.24;55.44;99694.03;4979284;28;20419;-68
2021/06/24 00:18:07;;;;;;;48.08;13.15;;;;;;;25.23;55.31;99687.63;4942789;28;20141;-66
2021/06/24 00:20:33;;;;;;;58.03;14.20;;;;;;;25.19;55.37;99686.78;4944469;28;20563;-67
2021/06/24 00:22:59;;;;;;;40.95;13.43;;;;;;;25.25;55.36;99692.88;4975742;28;20693;-67
2021/06/24 00:25:26;;;;;;;53.03;13.43;;;;;;;25.23;54.97;99689.63;4959845;28;20173;-66
2021/06/24 00:27:58;;;;;;;49.22;13.48;;;;;;;25.23;55.12;99704.41;4979677;28;20150;-66
2021/06/24 00:30:25;;;;;;;42.63;12.40;;;;;;;25.23;54.91;99698.81;4978049;28;20043;-67
2021/06/24 00:32:52;;;;;;;44.05;12.35;;;;;;;25.19;55.14;99695.97;4979431;28;20046;-68
2021/06/24 00:35:18;;;;;;;46.38;12.30;;;;;;;25.25;54.64;99699.25;4978008;28;20135;-66
2021/06/24 00:37:44;;;;;;;56.50;12.05;;;;;;;25.30;54.48;99703.72;4977835;28;20545;-66
2021/06/24 00:40:14;;;;;;;40.88;13.73;;;;;;;25.30;54.88;99703.72;4975577;28;20286;-65
2021/06/24 00:42:42;;;;;;;52.53;13.63;;;;;;;25.30;55.19;99712.09;4976857;28;20047;-68
2021/06/24 00:45:10;;;;;;;50.58;14.23;;;;;;;25.27;55.37;99704.47;4975961;28;20094;-67
2021/06/24 00:47:40;;;;;;;62.53;14.35;;;;;;;25.23;55.46;99710.00;4963863;28;20092;-67
2021/06/24 00:50:08;;;;;;;46.40;14.45;;;;;;;25.25;56.08;99712.44;4960490;28;20062;-67
2021/06/24 00:52:34;;;;;;;43.13;15.38;;;;;;;25.14;56.42;99704.69;4978078;28;20050;-67
2021/06/24 00:55:01;;;;;;;52.65;14.02;;;;;;;25.08;56.72;99711.81;4977600;28;20050;-67
2021/06/24 00:57:44;;;;;;;51.05;14.38;;;;;;;25.03;56.92;99703.72;4978548;28;20431;-68
2021/06/24 01:00:12;;;;;;;41.55;14.77;;;;;;;25.03;56.95;99715.72;4965068;28;20530;-66
2021/06/24 01:02:40;;;;;;;52.28;16.30;;;;;;;25.06;57.12;99722.56;4978211;28;20054;-67
2021/06/24 01:05:07;;;;;;;50.90;14.00;;;;;;;25.01;57.14;99718.09;4977806;28;20461;-68
2021/06/24 01:07:33;;;;;;;;;;;;;;;24.99;56.77;99719.63;4960218;28;20527;-67
2021/06/24 01:10:22;;;;;;;44.28;13.38;;;;;;;24.98;56.47;99718.84;4958999;28;20127;-67
2021/06/24 01:12:50;;;;;;;50.70;13.32;;;;;;;25.00;56.65;99729.63;4977870;28;20122;-65
2021/06/24 01:15:16;;;;;;;;;;;;;;;25.00;56.73;99727.66;4965833;28;20296;-67
2021/06/24 01:17:45;;;;;;;38.67;12.90;;;;;;;24.91;56.00;99727.09;4962492;28;19929;-67
2021/06/24 01:20:13;;;;;;;51.25;14.90;;;;;;;24.91;56.78;99727.09;4977363;28;20054;-67
2021/06/24 01:22:39;;;;;;;47.38;14.15;;;;;;;24.85;56.63;99734.19;4976942;28;20145;-67
2021/06/24 01:25:08;;;;;;;;;;;;;;;24.79;56.87;99725.31;4976043;28;20644;-68
2021/06/24 01:27:35;;;;;;;44.97;12.88;;;;;;;24.73;56.97;99733.19;4975978;28;19930;-66
2021/06/24 01:30:02;;;;;;;48.65;12.90;;;;;;;24.67;57.32;99733.84;4977669;28;20075;-68
2021/06/24 01:32:29;;;;;;;48.28;13.45;;;;;;;24.70;56.74;99724.72;4959985;28;20550;-67
2021/06/24 01:34:56;;;;;;;60.92;13.13;;;;;;;24.78;56.21;99720.91;4976127;28;20503;-68
2021/06/24 01:37:22;;;;;;;57.10;13.05;;;;;;;24.86;55.61;99721.84;4962798;28;20058;-67
2021/06/24 01:39:50;;;;;;;39.78;12.57;;;;;;;24.97;55.15;99722.78;4960114;28;20436;-69
2021/06/24 01:42:54;;;;;;;67.93;14.48;;;;;;;25.05;55.07;99726.50;4961029;28;20112;-69
2021/06/24 01:45:46;;;;;;;49.35;14.10;;;;;;;25.16;54.76;99730.28;4977362;28;20050;-69
2021/06/24 01:48:13;;;;;;;49.95;11.95;;;;;;;25.13;54.85;99714.25;4945255;28;20049;-68
2021/06/24 01:50:39;;;;;;;55.42;13.98;;;;;;;25.26;54.28;99726.03;4979143;28;20069;-67
2021/06/24 01:53:05;;;;;;;45.42;12.60;;;;;;;25.32;54.25;99727.34;4946470;28;20050;-67
2021/06/24 01:55:32;;;;;;;51.03;13.67;;;;;;;25.27;54.51;99715.66;4962357;28;20062;-67
2021/06/24 01:57:59;;;;;;;55.50;14.88;;;;;;;25.36;55.08;99730.16;4943492;28;20306;-66
2021/06/24 02:00:48;;;;;;;46.00;13.93;;;;;;;25.41;55.00;99734.63;4977070;28;20053;-67
2021/06/24 02:03:20;;;;;;;46.30;13.75;;;;;;;25.41;54.75;99731.84;4960350;28;20054;-67
2021/06/24 02:05:48;;;;;;;;;;;;;;;25.45;55.03;99735.50;4979576;28;20138;-67
2021/06/24 02:08:14;;;;;;;56.22;14.85;;;;;;;25.52;54.68;99735.63;4959944;28;19937;-67
2021/06/24 02:10:57;;;;;;;60.50;16.42;;;;;;;25.47;55.30;99731.13;4960527;28;20142;-66
2021/06/24 02:13:25;;;;;;;44.53;15.93;;;;;;;25.41;55.79;99718.66;4945242;28;20042;-67
2021/06/24 02:15:52;;;;;;;;;;;;;;;25.34;56.33;99738.97;4960255;28;20046;-68
2021/06/24 02:18:30;;;;;;;54.40;14.40;;;;;;;25.33;56.07;99730.94;4945304;28;19926;-67
2021/06/24 02:20:59;;;;;;;61.20;17.98;;;;;;;25.42;56.93;99720.28;4960910;28;20582;-67
2021/06/24 02:23:54;;;;;;;47.97;15.82;;;;;;;25.53;57.21;99723.25;4964233;28;20109;-67
2021/06/24 02:26:25;;;;;;;60.67;17.65;;;;;;;25.59;57.00;99720.94;4958510;28;20049;-67
2021/06/24 02:29:02;;;;;;;58.28;20.60;;;;;;;25.61;55.67;99724.97;4944434;28;20050;-67
2021/06/24 02:31:30;;;;;;;47.75;14.23;;;;;;;25.53;54.98;99725.25;4976184;28;20105;-67
2021/06/24 02:34:02;;;;;;;69.15;17.38;;;;;;;25.37;56.45;99729.00;4944998;28;20053;-67
2021/06/24 02:36:36;;;;;;;61.17;16.20;;;;;;;25.61;55.78;99738.16;4945835;28;20092;-68
2021/06/24 02:39:03;;;;;;;56.22;15.02;;;;;;;25.53;55.03;99725.25;4976538;28;20046;-67
2021/06/24 02:41:33;;;;;;;45.47;13.48;;;;;;;25.43;55.04;99735.88;4958970;28;20054;-66
2021/06/24 02:44:02;;;;;;;45.00;15.35;;;;;;;25.35;56.00;99732.19;4959623;28;20137;-67
2021/06/24 02:46:30;;;;;;;46.78;15.52;;;;;;;25.41;56.30;99734.63;4944616;28;20070;-67
2021/06/24 02:48:56;;;;;;;43.05;15.98;;;;;;;25.49;56.43;99730.81;4960204;28;20053;-68
2021/06/24 02:51:39;;;;;;;45.97;16.33;;;;;;;25.48;56.66;99726.38;4961495;28;20349;-67
2021/06/24 02:54:24;;;;;;;70.88;16.65;;;;;;;25.58;56.24;99716.53;4945474;28;20527;-67
2021/06/24 02:56:57;;;;;;;55.80;15.80;;;;;;;25.73;55.88;99706.31;4960434;28;20050;-68
2021/06/24 02:59:46;;;;;;;59.13;16.25;;;;;;;25.98;55.60;99711.41;4941909;28;20145;-70
2021/06/24 03:02:15;;;;;;;45.30;15.40;;;;;;;26.12;55.00;99710.75;4960007;28;20543;-67
2021/06/24 03:04:43;;;;;;;54.47;16.63;;;;;;;26.25;55.14;99714.94;4976084;28;20153;-67
2021/06/24 03:07:09;;;;;;;47.85;15.77;;;;;;;26.36;55.48;99715.03;4958624;28;20106;-68
2021/06/24 03:09:48;;;;;;;57.30;17.98;;;;;;;26.44;55.62;99722.34;4960128;28;20508;-67
2021/06/24 03:12:14;;;;;;;55.50;19.67;;;;;;;26.51;55.72;99723.59;4968371;28;20431;-68
2021/06/24 03:14:43;;;;;;;49.33;17.65;;;;;;;26.53;55.91;99715.59;4959342;28;20413;-67
2021/06/24 03:17:09;;;;;;;61.08;17.98;;;;;;;26.58;56.36;99721.66;4966607;28;20042;-67
2021/06/24 03:19:37;;;;;;;;;;;;;;;26.62;56.24;99724.50;4966180;28;20055;-68
2021/06/24 03:22:08;;;;;;;53.92;17.75;;;;;;;26.67;56.15;99717.75;4975483;28;19972;-67
2021/06/24 03:25:02;;;;;;;59.63;18.77;;;;;;;26.71;56.42;99719.38;4971794;28;20049;-67
2021/06/24 03:27:31;;;;;;;50.78;18.38;;;;;;;26.74;56.53;99715.81;4960131;28;20078;-68
2021/06/24 03:30:19;;;;;;;62.20;19.55;;;;;;;26.81;56.41;99722.66;4975291;28;20047;-68
2021/06/24 03:32:45;;;;;;;72.25;19.52;;;;;;;26.83;56.78;99723.88;4958285;28;20051;-69
2021/06/24 03:35:13;;;;;;;59.33;19.08;;;;;;;26.87;56.77;99718.34;4942905;28;20045;-68
2021/06/24 03:37:39;;;;;;;43.22;17.17;;;;;;;26.88;56.00;99717.94;4979616;28;20519;-67
2021/06/24 03:40:09;;;;;;;47.38;17.83;;;;;;;26.90;55.78;99715.53;4970731;28;20079;-67
2021/06/24 03:42:37;;;;;;;57.40;17.15;;;;;;;26.95;55.44;99717.19;4977482;28;20109;-68
2021/06/24 03:45:05;;;;;;;49.90;17.17;;;;;;;26.99;55.36;99718.00;4946711;28;20150;-68
2021/06/24 03:47:32;;;;;;;47.55;16.58;;;;;;;27.07;55.03;99715.28;4964538;28;20043;-67
2021/06/24 03:49:59;;;;;;;54.70;16.52;;;;;;;27.08;54.65;99706.44;4948232;28;20081;-67
2021/06/24 03:52:27;;;;;;;;;;;;;;;27.13;54.67;99720.13;4946854;28;20533;-66
2021/06/24 03:54:56;;;;;;;49.90;14.88;;;;;;;27.10;54.17;99717.28;4947973;28;20458;-67
2021/06/24 03:57:23;;;;;;;;;;;;;;;27.07;54.15;99721.66;4961692;28;20303;-67
2021/06/24 03:59:58;;;;;;;49.70;15.52;;;;;;;27.12;54.11;99706.47;4948118;28;19932;-67
2021/06/24 04:02:30;;;;;;;43.17;16.20;;;;;;;27.18;54.05;99714.16;4960338;28;20523;-66
2021/06/24 04:04:56;;;;;;;50.38;16.90;;;;;;;27.24;54.30;99714.59;4956586;28;20086;-68
2021/06/24 04:07:23;;;;;;;48.72;16.65;;;;;;;27.30;54.04;99717.84;4965255;28;20050;-68
2021/06/24 04:09:50;;;;;;;59.03;17.08;;;;;;;27.26;54.33;99719.81;4964897;28;20049;-67
2021/06/24 04:12:16;;;;;;;69.85;18.30;;;;;;;27.22;54.82;99711.38;4980310;28;20066;-66
2021/06/24 04:14:55;;;;;;;60.80;15.68;;;;;;;27.20;53.98;99721.38;4961443;28;20588;-66
2021/06/24 04:17:26;;;;;;;55.95;16.05;;;;;;;27.18;53.53;99716.94;4970377;28;20101;-67
2021/06/24 04:19:54;;;;;;;69.68;15.82;;;;;;;27.25;53.76;99718.22;4979595;28;20078;-66
2021/06/24 04:22:21;;;;;;;;;;;;;;;27.24;53.48;99713.75;4946902;28;20495;-67
2021/06/24 04:25:09;;;;;;;60.00;17.90;;;;;;;27.27;53.41;99715.81;4975828;28;20322;-67
2021/06/24 04:27:35;;;;;;;62.42;18.67;;;;;;;27.37;53.35;99706.63;4948000;28;20416;-67
2021/06/24 04:30:03;;;;;;;60.33;18.33;;;;;;;27.47;53.58;99705.06;4963017;28;20134;-67
2021/06/24 04:32:32;;;;;;;63.90;22.13;;;;;;;27.58;52.95;99708.78;4947098;28;20061;-66
2021/06/24 04:34:58;;;;;;;60.20;18.95;;;;;;;27.59;52.87;99679.50;4961535;28;20042;-64
2021/06/24 04:37:24;;;;;;;74.18;20.77;;;;;;;27.83;52.71;99696.88;4978477;28;20050;-66
2021/06/24 04:39:51;;;;;;;61.78;24.27;;;;;;;27.89;51.21;99695.28;4978003;28;20060;-66
2021/06/24 04:42:23;;;;;;;63.90;23.15;;;;;;;27.98;51.45;99694.88;4967897;28;20042;-66
2021/06/24 04:45:13;;;;;;;71.00;30.90;;;;;;;28.05;50.25;99693.31;4979137;28;20054;-66
2021/06/24 04:48:00;;;;;;;69.80;29.23;;;;;;;28.14;50.30;99700.16;4980555;28;20438;-67
2021/06/24 04:50:28;;;;;;;84.95;35.83;;;;;;;28.22;49.89;99694.56;4939243;28;20067;-65
2021/06/24 04:52:55;;;;;;;79.63;35.78;;;;;;;28.30;49.34;99696.22;4981319;28;20050;-65
2021/06/24 04:55:26;;;;;;;83.65;34.67;;;;;;;28.37;49.54;99706.66;4961972;28;20411;-66
2021/06/24 04:57:57;;;;;;;90.15;33.05;;;;;;;28.43;49.85;99711.50;4963579;28;20035;-66
2021/06/24 05:00:46;;;;;;;71.47;31.58;;;;;;;28.43;49.32;99717.13;4949078;28;20054;-66
2021/06/24 05:03:36;;;;;;;80.90;30.55;;;;;;;28.51;48.81;99705.88;4952762;28;20496;-66
2021/06/24 05:06:05;;;;;;;78.60;28.08;;;;;;;28.59;48.49;99705.47;4978673;28;20146;-67
2021/06/24 05:08:33;;;;;;;83.40;29.65;;;;;;;28.63;47.93;99705.47;4979555;28;20047;-66
2021/06/24 05:10:59;;;;;;;78.40;30.42;;;;;;;28.71;48.24;99709.88;4948803;28;20050;-66
2021/06/24 05:13:27;;;;;;;80.87;29.17;;;;;;;28.71;47.81;99690.19;4980395;28;20046;-67
2021/06/24 05:15:53;;;;;;;71.13;28.95;;;;;;;28.85;47.55;99711.13;4976396;28;20039;-66
2021/06/24 05:18:19;;;;;;;55.70;22.00;;;;;;;28.84;46.67;99712.31;4980218;28;20057;-66
2021/06/24 05:20:47;;;;;;;62.70;20.48;;;;;;;28.87;46.18;99717.97;4978046;28;20050;-67
2021/06/24 05:23:14;;;;;;;71.30;17.58;;;;;;;28.89;46.48;99702.69;4979489;28;20047;-66
2021/06/24 05:25:41;;;;;;;51.45;15.63;;;;;;;28.96;45.69;99708.31;4978549;28;20092;-71
2021/06/24 05:28:07;;;;;;;37.47;11.13;;;;;;;28.96;44.87;99706.28;4976165;28;20419;-69
2021/06/24 05:30:35;;;;;;;56.05;13.95;;;;;;;29.06;45.62;99709.50;4976147;28;20054;-71
2021/06/24 05:33:02;;;;;;;76.20;18.95;;;;;;;29.21;46.37;99707.47;4976634;28;20043;-72
2021/06/24 05:35:29;;;;;;;53.78;16.35;;;;;;;29.29;48.30;99706.25;4980290;28;20507;-72
2021/06/24 05:37:55;;;;;;;68.30;18.00;;;;;;;29.32;48.99;99708.25;4979637;28;20145;-70
2021/06/24 05:40:22;;;;;;;;;;;;;;;29.37;48.76;99705.00;4979693;28;20416;-69
2021/06/24 05:42:48;;;;;;;;;;;;;;;29.42;48.81;99706.66;4979549;28;20413;-69
2021/06/24 05:45:14;;;;;;;84.10;17.30;;;;;;;29.43;49.37;99702.63;4979018;28;19929;-69
2021/06/24 05:47:42;;;;;;;55.22;16.73;;;;;;;29.48;49.11;99698.59;4961746;28;20055;-68
2021/06/24 05:50:09;;;;;;;50.35;15.05;;;;;;;29.52;48.75;99700.19;4979042;28;20048;-69
2021/06/24 05:52:38;;;;;;;55.13;15.93;;;;;;;29.42;48.23;99678.50;4978416;28;20061;-69
2021/06/24 05:55:05;;;;;;;42.38;14.55;;;;;;;29.61;48.14;99693.28;4978433;28;20161;-69
2021/06/24 05:57:31;;;;;;;50.88;13.75;;;;;;;29.61;47.59;99698.94;4968389;28;20046;-70
2021/06/24 05:59:59;;;;;;;48.67;14.45;;;;;;;29.59;47.37;99696.53;4967958;28;20056;-66
2021/06/24 06:02:26;;;;;;;46.55;13.30;;;;;;;29.63;47.10;99690.88;4981315;28;20061;-69
2021/06/24 06:04:54;;;;;;;40.20;13.68;;;;;;;29.66;46.57;99696.50;4980977;28;20094;-67
2021/06/24 06:07:20;;;;;;;46.72;12.23;;;;;;;29.77;45.97;99698.47;4979126;28;20054;-68
2021/06/24 06:09:46;;;;;;;34.90;12.77;;;;;;;29.79;44.93;99701.69;4980922;28;20046;-69
2021/06/24 06:12:13;;;;;;;38.35;11.43;;;;;;;29.88;45.15;99704.84;4981100;28;20399;-70
2021/06/24 06:14:39;;;;;;;35.13;10.05;;;;;;;29.94;44.46;99693.94;4979463;28;20082;-67
2021/06/24 06:17:05;;;;;;;46.13;11.60;;;;;;;30.00;43.88;99695.94;4978783;28;20051;-68
2021/06/24 06:19:31;;;;;;;42.30;10.07;;;;;;;30.07;43.74;99685.88;4980164;28;20145;-68
2021/06/24 06:21:59;;;;;;;38.05;9.63;;;;;;;30.14;43.16;99692.28;4979837;28;20377;-68
2021/06/24 06:24:25;;;;;;;36.38;10.55;;;;;;;30.19;42.93;99690.22;4980070;28;20058;-71
2021/06/24 06:26:52;;;;;;;35.25;9.80;;;;;;;30.22;42.92;99686.56;4963443;28;20042;-68
2021/06/24 06:29:20;;;;;;;;;;;;;;;30.22;43.00;99692.22;4977080;28;20512;-66
2021/06/24 06:31:46;;;;;;;43.45;9.02;;;;;;;30.22;42.46;99690.22;4977740;28;19925;-68
2021/06/24 06:34:12;;;;;;;36.20;8.68;;;;;;;30.24;42.04;99692.59;4978313;28;20133;-66
2021/06/24 06:36:38;;;;;;;34.10;8.15;;;;;;;30.28;41.78;99693.38;4978377;28;20045;-66
2021/06/24 06:39:06;;;;;;;40.75;8.68;;;;;;;30.35;41.77;99689.69;4978599;28;20073;-66
2021/06/24 06:41:32;;;;;;;34.47;7.28;;;;;;;30.44;41.22;99687.22;4959450;28;20451;-70
2021/06/24 06:43:58;;;;;;;30.52;7.20;;;;;;;30.47;41.21;99679.97;4973797;28;20046;-70
2021/06/24 06:46:34;;;;;;;40.08;7.72;;;;;;;30.55;39.93;99687.94;4978663;28;20153;-68
2021/06/24 06:49:02;;;;;;;38.17;7.90;;;;;;;30.60;40.05;99691.53;4978826;28;20138;-69
2021/06/24 06:51:29;;;;;;;28.75;8.10;;;;;;;30.62;39.89;99689.94;4978718;28;20380;-70
2021/06/24 06:53:55;;;;;;;37.38;8.80;;;;;;;30.67;39.23;99691.50;4977563;28;20050;-69
2021/06/24 06:56:23;;;;;;;38.35;8.10;;;;;;;30.73;38.73;99689.03;4979927;28;20057;-70
2021/06/24 06:58:49;;;;;;;32.22;8.73;;;;;;;30.74;39.22;99680.16;4979930;28;20050;-69
2021/06/24 07:01:15;;;;;;;31.48;9.35;;;;;;;30.83;39.40;99685.31;4960791;28;20066;-70
2021/06/24 07:03:41;;;;;;;33.95;9.27;;;;;;;30.84;39.35;99679.28;4978490;28;20137;-72
2021/06/24 07:06:08;;;;;;;30.50;9.07;;;;;;;30.92;39.33;99679.19;4978937;28;20534;-69
2021/06/24 07:08:34;;;;;;;38.75;10.10;;;;;;;30.93;40.27;99675.16;4979007;28;20051;-68
2021/06/24 07:11:00;;;;;;;45.83;10.20;;;;;;;30.95;40.21;99679.16;4979415;28;20049;-67
2021/06/24 07:13:28;;;;;;;31.45;9.70;;;;;;;30.98;39.88;99683.97;4966500;28;20065;-71
2021/06/24 07:15:57;;;;;;;25.67;8.98;;;;;;;31.05;39.92;99685.09;4983793;28;20054;-69
2021/06/24 07:18:23;;;;;;;37.03;9.98;;;;;;;31.08;39.77;99687.13;4983617;28;20057;-70
2021/06/24 07:20:50;;;;;;;33.80;9.23;;;;;;;31.12;39.78;99688.66;4978547;28;20129;-70
2021/06/24 07:23:16;;;;;;;37.97;9.43;;;;;;;31.07;37.75;99680.66;4982801;28;20054;-70
2021/06/24 07:25:42;;;;;;;34.13;9.00;;;;;;;31.12;36.57;99674.53;4935319;28;20054;-71
2021/06/24 07:28:08;;;;;;;40.08;9.18;;;;;;;31.18;35.89;99680.53;4983153;28;20566;-72
2021/06/24 07:30:37;;;;;;;27.00;7.70;;;;;;;31.19;35.75;99681.34;4980227;28;20107;-69
2021/06/24 07:33:04;;;;;;;33.20;7.90;;;;;;;31.25;35.88;99685.34;4956289;28;20121;-69
2021/06/24 07:35:31;;;;;;;32.58;8.90;;;;;;;31.31;35.67;99680.84;4983194;28;20491;-67
2021/06/24 07:37:58;;;;;;;30.27;8.80;;;;;;;31.31;36.07;99682.84;4964488;28;20046;-70
2021/06/24 07:40:25;;;;;;;40.92;9.05;;;;;;;31.33;36.08;99669.13;4981321;28;20423;-71
2021/06/24 07:42:51;;;;;;;41.67;8.43;;;;;;;31.24;35.47;99664.78;4966535;28;20692;-70
2021/06/24 07:45:18;;;;;;;40.72;9.07;;;;;;;31.36;35.04;99666.25;4982413;28;20149;-70
2021/06/24 07:47:45;;;;;;;34.00;7.97;;;;;;;31.36;35.17;99665.44;4980394;28;20070;-70
2021/06/24 07:50:12;;;;;;;30.45;9.07;;;;;;;31.46;35.80;99672.22;4982032;28;20101;-69
2021/06/24 07:52:38;;;;;;;92.90;10.85;;;;;;;31.53;35.26;99670.09;4964014;28;20070;-69
2021/06/24 07:55:07;;;;;;;41.53;8.45;;;;;;;31.55;35.77;99659.19;4982532;28;20050;-70
2021/06/24 07:57:34;;;;;;;43.55;9.10;;;;;;;31.56;36.76;99654.31;4979303;28;20057;-70
2021/06/24 08:00:00;;;;;;;39.28;8.48;;;;;;;31.62;36.53;99660.28;4981704;28;20051;-66
2021/06/24 08:02:26;;;;;;;41.70;8.07;;;;;;;31.58;36.21;99646.22;4981333;28;20050;-63
2021/06/24 08:04:54;;;;;;;32.55;8.25;;;;;;;31.57;35.24;99657.94;4982852;28;20542;-69
2021/06/24 08:07:21;;;;;;;30.58;7.47;;;;;;;31.57;35.37;99655.13;4962476;28;20043;-70
2021/06/24 08:09:47;;;;;;;38.10;8.77;;;;;;;31.57;35.38;99661.56;4979904;28;20051;-65
2021/06/24 08:12:14;;;;;;;31.77;7.90;;;;;;;31.59;35.20;99658.31;4978465;28;20046;-64
2021/06/24 08:14:40;;;;;;;35.78;7.75;;;;;;;31.68;34.96;99653.75;4982019;28;20050;-69
2021/06/24 08:17:06;;;;;;;29.80;7.30;;;;;;;31.68;34.51;99647.28;4976676;28;20054;-70
2021/06/24 08:19:32;;;;;;;39.28;7.80;;;;;;;31.72;34.76;99650.06;4980516;28;20137;-69
2021/06/24 08:22:00;;;;;;;30.42;8.25;;;;;;;31.81;34.85;99651.19;4981441;28;20061;-69
2021/06/24 08:24:27;;;;;;;27.02;7.45;;;;;;;31.82;34.39;99647.13;4981039;28;20050;-69
2021/06/24 08:26:53;;;;;;;27.85;8.18;;;;;;;31.87;35.00;99651.50;4962727;28;20059;-69
2021/06/24 08:29:20;;;;;;;36.78;9.27;;;;;;;31.86;35.55;99641.44;4980785;28;20128;-70
2021/06/24 08:31:46;;;;;;;34.40;7.88;;;;;;;31.87;34.90;99650.72;4981193;28;20153;-67
2021/06/24 08:34:12;;;;;;;28.55;8.27;;;;;;;31.91;34.77;99645.81;4978876;28;20137;-69
2021/06/24 08:36:38;;;;;;;33.42;7.90;;;;;;;31.94;34.76;99642.94;4981528;28;20546;-67
2021/06/24 08:39:06;;;;;;;38.42;8.52;;;;;;;31.94;34.82;99650.59;4980547;28;20065;-72
2021/06/24 08:41:35;;;;;;;42.28;10.45;;;;;;;31.97;35.44;99650.56;4982182;28;20055;-69
2021/06/24 08:44:01;;;;;;;31.23;8.48;;;;;;;31.96;35.17;99643.31;4957653;28;20042;-69
2021/06/24 08:46:28;;;;;;;37.38;9.10;;;;;;;31.91;37.00;99654.28;4981641;28;20046;-69
2021/06/24 08:48:55;;;;;;;44.53;9.38;;;;;;;31.87;36.18;99654.34;4980001;28;20073;-69
2021/06/24 08:51:21;;;;;;;45.30;8.48;;;;;;;31.97;36.60;99644.09;4982191;28;20087;-69
2021/06/24 08:53:48;;;;;;;37.00;8.70;;;;;;;31.95;35.76;99655.84;4946014;28;20050;-68
2021/06/24 08:56:16;;;;;;;28.17;8.05;;;;;;;32.09;35.59;99654.03;4980050;28;20046;-69
2021/06/24 08:58:44;;;;;;;33.92;8.10;;;;;;;32.14;35.27;99638.59;4980130;28;20047;-70
2021/06/24 09:01:10;;;;;;;42.90;8.35;;;;;;;32.13;35.63;99648.31;4929492;28;20150;-69
2021/06/24 09:03:43;;;;;;;39.88;8.90;;;;;;;32.20;35.57;99653.88;4979594;28;20049;-70
2021/06/24 09:06:09;;;;;;;45.92;9.07;;;;;;;32.23;35.19;99648.13;4981296;28;20053;-70
2021/06/24 09:08:41;;;;;;;31.83;9.52;;;;;;;32.24;35.38;99644.09;4980852;28;20050;-70
2021/06/24 09:11:17;;;;;;;34.17;9.65;;;;;;;32.18;35.07;99642.97;4980217;28;20515;-71
2021/06/24 09:13:45;;;;;;;38.45;9.10;;;;;;;32.09;35.73;99642.72;4982237;28;20053;-69
2021/06/24 09:16:20;;;;;;;38.78;9.48;;;;;;;32.18;35.81;99640.16;4980181;28;20051;-68
2021/06/24 09:18:46;;;;;;;39.08;9.82;;;;;;;32.22;35.87;99645.75;4962625;28;20038;-70
2021/06/24 09:21:20;;;;;;;44.72;9.52;;;;;;;32.15;34.98;99641.00;4978668;28;20066;-68
2021/06/24 09:23:49;;;;;;;45.42;9.38;;;;;;;32.22;35.62;99643.72;4933130;28;20592;-68
2021/06/24 09:26:18;;;;;;;31.73;9.38;;;;;;;32.31;35.80;99648.03;4979598;28;20514;-67
2021/06/24 09:28:48;;;;;;;39.58;9.55;;;;;;;32.37;34.63;99644.31;4977865;28;20061;-69
2021/06/24 09:31:25;;;;;;;33.47;8.85;;;;;;;32.38;34.76;99642.28;4979398;28;20508;-70
2021/06/24 09:33:53;;;;;;;30.60;9.15;;;;;;;32.41;35.03;99641.44;4980602;28;20055;-68
2021/06/24 09:36:36;;;;;;;36.35;8.98;;;;;;;32.38;35.23;99639.44;4980332;28;20046;-72
2021/06/24 09:39:05;;;;;;;43.55;10.00;;;;;;;32.45;34.50;99639.34;4980242;28;20058;-69
2021/06/24 09:41:33;;;;;;;46.03;9.23;;;;;;;32.38;34.28;99637.44;4979306;28;20042;-68
2021/06/24 09:43:59;;;;;;;29.60;8.80;;;;;;;32.37;34.19;99635.03;4978924;28;20051;-69
2021/06/24 09:46:27;;;;;;;32.03;9.02;;;;;;;32.44;33.89;99636.94;4977077;28;20046;-69
2021/06/24 09:48:59;;;;;;;48.75;10.32;;;;;;;32.49;34.12;99636.47;4963384;28;20183;-72
2021/06/24 09:51:27;;;;;;;35.88;8.85;;;;;;;32.52;34.30;99633.56;4980339;28;20061;-70
2021/06/24 09:53:56;;;;;;;34.03;8.88;;;;;;;32.60;33.74;99622.91;4979433;28;20046;-68
2021/06/24 09:56:26;;;;;;;50.65;9.60;;;;;;;32.62;33.59;99626.09;4976982;28;20141;-69
2021/06/24 09:58:54;;;;;;;49.60;9.85;;;;;;;32.68;33.53;99624.41;4978443;28;20085;-70
2021/06/24 10:01:29;;;;;;;37.17;8.95;;;;;;;32.72;34.08;99630.00;4957424;28;20051;-68
2021/06/24 10:03:57;;;;;;;38.55;9.35;;;;;;;32.71;34.03;99631.25;4947170;28;20136;-70
2021/06/24 10:06:24;;;;;;;41.85;9.20;;;;;;;32.72;34.32;99632.03;4978283;28;20501;-69
2021/06/24 10:08:50;;;;;;;28.13;8.43;;;;;;;32.68;34.70;99620.75;4962938;28;20519;-68
2021/06/24 10:11:16;;;;;;;;;;;;;;;32.73;34.35;99628.78;4948079;28;20073;-67
2021/06/24 10:13:42;;;;;;;37.95;9.95;;;;;;;32.80;33.66;99628.63;4963652;28;20372;-68
2021/06/24 10:16:11;;;;;;;39.45;12.00;;;;;;;32.79;34.14;99627.03;4979850;28;20093;-70
2021/06/24 10:18:40;;;;;;;42.42;10.52;;;;;;;32.81;34.78;99626.59;4980274;28;20046;-69
2021/06/24 10:21:07;;;;;;;38.70;9.65;;;;;;;32.88;34.38;99631.34;4979803;28;20604;-71
2021/06/24 10:23:34;;;;;;;37.03;10.68;;;;;;;32.94;33.76;99633.28;4977997;28;20367;-69
2021/06/24 10:26:01;;;;;;;;;;;;;;;32.94;34.41;99630.44;4978271;28;20116;-70
2021/06/24 10:28:27;;;;;;;42.03;9.88;;;;;;;32.82;33.57;99629.00;4980458;28;19925;-70
2021/06/24 10:30:53;;;;;;;42.30;9.05;;;;;;;32.81;32.94;99635.88;4980771;28;20050;-70
2021/06/24 10:33:21;;;;;;;39.35;9.35;;;;;;;32.82;33.74;99631.81;4976574;28;20057;-70
2021/06/24 10:35:51;;;;;;;32.42;10.07;;;;;;;32.85;34.60;99638.66;4980450;28;20061;-69
2021/06/24 10:38:18;;;;;;;34.25;8.77;;;;;;;32.81;34.50;99635.09;4980401;28;20050;-70
2021/06/24 10:40:55;;;;;;;44.78;9.52;;;;;;;32.56;34.54;99627.84;4980202;28;20062;-68
2021/06/24 10:43:24;;;;;;;51.70;11.32;;;;;;;32.81;34.46;99627.41;4957746;28;20482;-67
2021/06/24 10:46:10;;;;;;;40.38;10.05;;;;;;;32.89;34.62;99636.56;4983513;28;20043;-69
2021/06/24 10:48:38;;;;;;;38.42;10.63;;;;;;;32.92;34.26;99630.03;4983678;28;20468;-70
2021/06/24 10:51:05;;;;;;;33.65;10.02;;;;;;;32.91;34.26;99633.31;4983319;28;20460;-69
2021/06/24 10:53:50;;;;;;;46.55;9.38;;;;;;;32.88;32.99;99637.00;4967200;28;20066;-70
2021/06/24 10:56:31;;;;;;;37.55;10.20;;;;;;;33.01;32.87;99629.47;4982523;28;20475;-70
2021/06/24 10:58:58;;;;;;;36.10;10.88;;;;;;;32.99;32.69;99626.28;4983343;28;20105;-69
2021/06/24 11:01:41;;;;;;;33.42;9.52;;;;;;;32.88;32.67;99612.31;4983654;28;20145;-68
2021/06/24 11:04:26;;;;;;;39.22;9.80;;;;;;;32.87;32.90;99613.53;4980785;28;20043;-70
2021/06/24 11:06:54;;;;;;;34.45;9.50;;;;;;;32.90;32.55;99607.03;4975469;28;20046;-72
2021/06/24 11:09:20;;;;;;;30.67;9.52;;;;;;;32.79;32.62;99610.06;4979944;28;20042;-72
2021/06/24 11:11:47;;;;;;;33.42;9.32;;;;;;;32.71;33.40;99607.78;4981895;28;20046;-70
2021/06/24 11:14:15;;;;;;;;;;;;;;;32.80;33.36;99608.81;4981329;28;20053;-70
2021/06/24 11:16:42;;;;;;;35.13;9.40;;;;;;;32.95;32.29;99612.22;4981293;28;19980;-69
2021/06/24 11:19:11;;;;;;;;;;;;;;;33.01;31.82;99611.72;4949053;28;20046;-68
2021/06/24 11:21:55;;;;;;;31.65;8.57;;;;;;;33.05;31.95;99604.75;4980168;28;20493;-70
2021/06/24 11:24:28;;;;;;;33.88;9.93;;;;;;;33.07;31.64;99609.94;4978922;28;20042;-69
2021/06/24 11:26:56;;;;;;;32.05;9.50;;;;;;;33.11;32.28;99605.03;4975825;28;20043;-72
2021/06/24 11:29:43;;;;;;;29.98;10.35;;;;;;;33.08;33.02;99592.53;4980892;28;20051;-73
2021/06/24 11:32:14;;;;;;;41.22;10.20;;;;;;;33.22;32.44;99599.16;4982015;28;20042;-71
2021/06/24 11:34:49;;;;;;;31.15;10.18;;;;;;;33.20;32.98;99610.13;4978897;28;20034;-71